createdAt,value
2017-10-09T00:00:40.165Z,9.74
2017-10-09T00:01:40.166Z,9.74
2017-10-09T00:02:40.166Z,9.74
2017-10-09T00:03:40.167Z,9.70
2017-10-09T00:04:40.167Z,9.73
2017-10-09T00:05:40.468Z,9.80
2017-10-09T00:06:40.167Z,9.74
2017-10-09T00:07:40.166Z,9.74
2017-10-09T00:08:40.166Z,9.74
2017-10-09T00:09:40.167Z,9.81
2017-10-09T00:10:40.168Z,9.87
2017-10-09T00:11:40.166Z,9.90
2017-10-09T00:12:40.167Z,9.84
2017-10-09T00:13:40.167Z,9.84
2017-10-09T00:14:40.169Z,9.84
2017-10-09T00:15:40.166Z,9.80
2017-10-09T00:16:40.167Z,9.82
2017-10-09T00:17:40.167Z,9.72
2017-10-09T00:18:40.168Z,9.77
2017-10-09T00:19:40.168Z,9.74
2017-10-09T00:20:40.167Z,9.64
2017-10-09T00:21:40.167Z,9.69
2017-10-09T00:22:40.168Z,9.66
2017-10-09T00:23:40.167Z,9.67
2017-10-09T00:24:40.168Z,9.66
2017-10-09T00:25:40.174Z,9.55
2017-10-09T00:26:40.169Z,9.52
2017-10-09T00:27:40.168Z,9.47
2017-10-09T00:28:40.169Z,9.54
2017-10-09T00:29:40.169Z,9.49
2017-10-09T00:30:40.170Z,9.47
2017-10-09T00:31:40.169Z,9.47
2017-10-09T00:32:40.169Z,9.47
2017-10-09T00:33:40.170Z,9.44
2017-10-09T00:34:40.169Z,9.36
2017-10-09T00:35:40.168Z,9.49
2017-10-09T00:36:40.169Z,9.54
2017-10-09T00:37:40.169Z,9.51
2017-10-09T00:38:40.170Z,9.52
2017-10-09T00:39:40.169Z,9.54
2017-10-09T00:40:40.169Z,9.52
2017-10-09T00:41:40.170Z,9.56
2017-10-09T00:42:40.170Z,9.52
2017-10-09T00:43:40.168Z,9.52
2017-10-09T00:44:40.169Z,9.52
2017-10-09T00:45:40.169Z,9.48
2017-10-09T00:46:40.170Z,9.47
2017-10-09T00:47:40.168Z,9.44
2017-10-09T00:48:40.168Z,9.40
2017-10-09T00:49:40.168Z,9.42
2017-10-09T00:50:40.169Z,9.48
2017-10-09T00:51:40.167Z,9.51
2017-10-09T00:52:40.169Z,9.51
2017-10-09T00:53:40.169Z,9.55
2017-10-09T00:54:40.168Z,9.52
2017-10-09T00:55:40.168Z,9.44
2017-10-09T00:56:40.169Z,9.51
2017-10-09T00:57:40.168Z,9.49
2017-10-09T00:58:40.170Z,9.55
2017-10-09T00:59:40.167Z,9.52
2017-10-09T01:00:40.168Z,9.51
2017-10-09T01:01:40.169Z,9.44
2017-10-09T01:02:40.168Z,9.40
2017-10-09T01:03:40.167Z,9.40
2017-10-09T01:04:40.170Z,9.48
2017-10-09T01:05:40.169Z,9.47
2017-10-09T01:06:40.168Z,9.47
2017-10-09T01:07:40.167Z,9.42
2017-10-09T01:08:40.166Z,9.37
2017-10-09T01:09:40.167Z,9.37
2017-10-09T01:10:40.167Z,9.34
2017-10-09T01:11:40.167Z,9.42
2017-10-09T01:12:40.168Z,9.39
2017-10-09T01:13:40.167Z,9.40
2017-10-09T01:14:40.168Z,9.36
2017-10-09T01:15:40.166Z,9.40
2017-10-09T01:16:40.167Z,9.48
2017-10-09T01:17:40.166Z,9.48
2017-10-09T01:18:40.168Z,9.49
2017-10-09T01:19:40.165Z,9.55
2017-10-09T01:20:40.166Z,9.59
2017-10-09T01:21:40.168Z,9.52
2017-10-09T01:22:40.167Z,9.47
2017-10-09T01:23:40.168Z,9.48
2017-10-09T01:24:40.166Z,9.51
2017-10-09T01:25:40.166Z,9.52
2017-10-09T01:26:40.166Z,9.56
2017-10-09T01:27:40.166Z,9.52
2017-10-09T01:28:40.166Z,9.52
2017-10-09T01:29:40.165Z,9.52
2017-10-09T01:30:40.166Z,9.59
2017-10-09T01:31:40.166Z,9.55
2017-10-09T01:32:40.165Z,9.49
2017-10-09T01:33:40.166Z,9.56
2017-10-09T01:34:40.167Z,9.47
2017-10-09T01:35:40.165Z,9.52
2017-10-09T01:36:40.166Z,9.56
2017-10-09T01:37:40.165Z,9.54
2017-10-09T01:38:40.166Z,9.54
2017-10-09T01:39:40.165Z,9.51
2017-10-09T01:40:40.164Z,9.49
2017-10-09T01:41:40.165Z,9.54
2017-10-09T01:42:40.165Z,9.48
2017-10-09T01:43:40.165Z,9.44
2017-10-09T01:44:40.165Z,9.52
2017-10-09T01:45:40.166Z,9.48
2017-10-09T01:46:40.165Z,9.36
2017-10-09T01:47:40.163Z,9.47
2017-10-09T01:48:40.165Z,9.49
2017-10-09T01:49:40.167Z,9.34
2017-10-09T01:50:40.172Z,9.34
2017-10-09T01:51:40.165Z,9.34
2017-10-09T01:52:40.168Z,9.29
2017-10-09T01:53:40.195Z,9.29
2017-10-09T01:54:40.164Z,9.29
2017-10-09T01:55:40.163Z,9.27
2017-10-09T01:56:40.164Z,9.33
2017-10-09T01:57:40.164Z,9.27
2017-10-09T01:58:40.163Z,9.18
2017-10-09T01:59:40.163Z,9.15
2017-10-09T02:00:40.162Z,9.21
2017-10-09T02:01:40.164Z,9.19
2017-10-09T02:02:40.163Z,9.21
2017-10-09T02:03:40.162Z,9.12
2017-10-09T02:04:40.162Z,9.13
2017-10-09T02:05:40.164Z,9.15
2017-10-09T02:06:40.163Z,9.11
2017-10-09T02:07:40.162Z,9.12
2017-10-09T02:08:40.160Z,9.12
2017-10-09T02:09:40.160Z,9.11
2017-10-09T02:10:40.160Z,9.09
2017-10-09T02:11:40.161Z,9.02
2017-10-09T02:12:40.186Z,9.00
2017-10-09T02:13:40.160Z,9.13
2017-10-09T02:14:40.162Z,9.13
2017-10-09T02:15:40.158Z,9.11
2017-10-09T02:16:40.160Z,9.13
2017-10-09T02:17:40.158Z,9.13
2017-10-09T02:18:40.158Z,9.16
2017-10-09T02:19:40.159Z,9.24
2017-10-09T02:20:40.156Z,9.18
2017-10-09T02:21:40.158Z,9.15
2017-10-09T02:22:40.157Z,9.22
2017-10-09T02:23:40.156Z,9.24
2017-10-09T02:24:40.157Z,9.29
2017-10-09T02:25:40.157Z,9.15
2017-10-09T02:26:40.155Z,9.18
2017-10-09T02:27:40.155Z,9.11
2017-10-09T02:28:40.155Z,9.11
2017-10-09T02:29:40.156Z,9.11
2017-10-09T02:30:40.155Z,9.11
2017-10-09T02:31:40.155Z,9.00
2017-10-09T02:32:40.155Z,9.12
2017-10-09T02:33:40.154Z,9.00
2017-10-09T02:34:40.154Z,8.95
2017-10-09T02:35:40.153Z,9.02
2017-10-09T02:36:40.152Z,8.89
2017-10-09T02:37:40.153Z,9.09
2017-10-09T02:38:40.154Z,9.02
2017-10-09T02:39:40.151Z,9.13
2017-10-09T02:40:40.151Z,9.13
2017-10-09T02:41:40.151Z,9.00
2017-10-09T02:42:40.151Z,9.05
2017-10-09T02:43:40.149Z,8.99
2017-10-09T02:44:40.150Z,9.02
2017-10-09T02:45:40.150Z,9.03
2017-10-09T02:46:40.152Z,9.00
2017-10-09T02:47:40.148Z,8.95
2017-10-09T02:48:40.149Z,8.93
2017-10-09T02:49:40.147Z,8.84
2017-10-09T02:50:40.147Z,8.89
2017-10-09T02:51:40.148Z,8.86
2017-10-09T02:52:40.147Z,8.77
2017-10-09T02:53:40.146Z,8.74
2017-10-09T02:54:40.147Z,8.81
2017-10-09T02:55:40.147Z,8.81
2017-10-09T02:56:40.146Z,8.84
2017-10-09T02:57:40.146Z,8.81
2017-10-09T02:58:40.144Z,8.75
2017-10-09T02:59:40.144Z,8.77
2017-10-09T03:00:40.143Z,8.84
2017-10-09T03:01:40.142Z,8.82
2017-10-09T03:02:40.142Z,8.77
2017-10-09T03:03:40.140Z,8.77
2017-10-09T03:04:40.140Z,8.92
2017-10-09T03:05:40.141Z,8.95
2017-10-09T03:06:40.141Z,8.93
2017-10-09T03:07:40.140Z,8.93
2017-10-09T03:08:40.139Z,8.96
2017-10-09T03:09:40.140Z,8.92
2017-10-09T03:10:40.138Z,9.08
2017-10-09T03:11:40.137Z,8.99
2017-10-09T03:12:40.138Z,9.00
2017-10-09T03:13:40.136Z,9.15
2017-10-09T03:14:40.136Z,9.03
2017-10-09T03:15:40.136Z,9.02
2017-10-09T03:16:40.135Z,9.02
2017-10-09T03:17:40.135Z,9.09
2017-10-09T03:18:40.134Z,8.97
2017-10-09T03:19:40.133Z,9.02
2017-10-09T03:20:40.133Z,9.05
2017-10-09T03:21:40.133Z,8.96
2017-10-09T03:22:40.133Z,8.95
2017-10-09T03:23:40.131Z,8.79
2017-10-09T03:24:40.132Z,8.79
2017-10-09T03:25:40.130Z,8.86
2017-10-09T03:26:40.132Z,8.86
2017-10-09T03:27:40.130Z,8.77
2017-10-09T03:28:40.130Z,8.74
2017-10-09T03:29:40.131Z,8.64
2017-10-09T03:30:40.132Z,8.63
2017-10-09T03:31:40.129Z,8.59
2017-10-09T03:32:40.129Z,8.63
2017-10-09T03:33:40.126Z,8.63
2017-10-09T03:34:40.127Z,8.57
2017-10-09T03:35:40.129Z,8.59
2017-10-09T03:36:40.126Z,8.61
2017-10-09T03:37:40.124Z,8.61
2017-10-09T03:38:40.125Z,8.68
2017-10-09T03:39:40.125Z,8.54
2017-10-09T03:40:40.123Z,8.64
2017-10-09T03:41:40.123Z,8.61
2017-10-09T03:42:40.122Z,8.81
2017-10-09T03:43:40.120Z,8.77
2017-10-09T03:44:40.121Z,8.78
2017-10-09T03:45:40.119Z,8.86
2017-10-09T03:46:40.119Z,8.82
2017-10-09T03:47:40.119Z,8.99
2017-10-09T03:48:40.118Z,9.00
2017-10-09T03:49:40.117Z,8.95
2017-10-09T03:50:40.116Z,9.02
2017-10-09T03:51:40.116Z,9.03
2017-10-09T03:52:40.115Z,9.09
2017-10-09T03:53:40.115Z,9.08
2017-10-09T03:54:40.114Z,8.95
2017-10-09T03:55:40.113Z,9.08
2017-10-09T03:56:40.113Z,9.11
2017-10-09T03:57:40.114Z,9.12
2017-10-09T03:58:40.112Z,8.96
2017-10-09T03:59:40.112Z,9.02
2017-10-09T04:00:40.113Z,9.15
2017-10-09T04:01:40.111Z,9.08
2017-10-09T04:02:40.112Z,9.15
2017-10-09T04:03:40.109Z,9.13
2017-10-09T04:04:40.110Z,9.13
2017-10-09T04:05:40.108Z,9.13
2017-10-09T04:06:40.112Z,9.05
2017-10-09T04:07:40.110Z,9.08
2017-10-09T04:08:40.108Z,8.96
2017-10-09T04:09:40.108Z,9.05
2017-10-09T04:10:40.107Z,9.05
2017-10-09T04:11:40.106Z,9.09
2017-10-09T04:12:40.106Z,9.08
2017-10-09T04:13:40.106Z,9.03
2017-10-09T04:14:40.109Z,9.09
2017-10-09T04:15:40.105Z,9.13
2017-10-09T04:16:40.105Z,9.13
2017-10-09T04:17:40.105Z,9.11
2017-10-09T04:18:40.105Z,9.13
2017-10-09T04:19:40.103Z,9.18
2017-10-09T04:20:40.105Z,9.13
2017-10-09T04:21:40.102Z,9.18
2017-10-09T04:22:40.104Z,9.11
2017-10-09T04:23:40.100Z,9.09
2017-10-09T04:24:40.101Z,9.21
2017-10-09T04:25:40.099Z,9.22
2017-10-09T04:26:40.102Z,9.22
2017-10-09T04:27:40.100Z,9.24
2017-10-09T04:28:40.105Z,9.27
2017-10-09T04:29:40.099Z,9.27
2017-10-09T04:30:40.099Z,9.26
2017-10-09T04:31:40.101Z,9.19
2017-10-09T04:32:40.098Z,9.22
2017-10-09T04:33:40.097Z,9.30
2017-10-09T04:34:40.096Z,9.19
2017-10-09T04:35:40.095Z,9.24
2017-10-09T04:36:40.095Z,9.29
2017-10-09T04:37:40.095Z,9.26
2017-10-09T04:38:40.097Z,9.27
2017-10-09T04:39:40.095Z,9.29
2017-10-09T04:40:40.095Z,9.21
2017-10-09T04:41:40.094Z,9.18
2017-10-09T04:42:40.098Z,9.24
2017-10-09T04:43:40.093Z,9.11
2017-10-09T04:44:40.092Z,9.18
2017-10-09T04:45:40.093Z,9.13
2017-10-09T04:46:40.092Z,9.03
2017-10-09T04:47:40.092Z,9.08
2017-10-09T04:48:40.090Z,9.03
2017-10-09T04:49:40.093Z,8.96
2017-10-09T04:50:40.090Z,8.97
2017-10-09T04:51:40.089Z,8.96
2017-10-09T04:52:40.090Z,8.93
2017-10-09T04:53:40.090Z,8.95
2017-10-09T04:54:40.088Z,9.00
2017-10-09T04:55:40.089Z,9.03
2017-10-09T04:56:40.088Z,8.97
2017-10-09T04:57:40.088Z,8.97
2017-10-09T04:58:40.089Z,8.97
2017-10-09T04:59:40.087Z,9.09
2017-10-09T05:00:40.086Z,9.16
2017-10-09T05:01:40.087Z,9.02
2017-10-09T05:02:40.091Z,8.99
2017-10-09T05:03:40.085Z,9.08
2017-10-09T05:04:40.084Z,9.03
2017-10-09T05:05:40.085Z,9.03
2017-10-09T05:06:40.084Z,9.05
2017-10-09T05:07:40.085Z,9.08
2017-10-09T05:08:40.083Z,9.02
2017-10-09T05:09:40.082Z,8.97
2017-10-09T05:10:40.083Z,8.93
2017-10-09T05:11:40.081Z,9.09
2017-10-09T05:12:40.080Z,9.11
2017-10-09T05:13:40.081Z,8.97
2017-10-09T05:14:40.081Z,9.05
2017-10-09T05:15:40.078Z,9.08
2017-10-09T05:16:40.078Z,9.02
2017-10-09T05:17:40.080Z,9.03
2017-10-09T05:18:40.079Z,8.96
2017-10-09T05:19:40.079Z,9.00
2017-10-09T05:20:40.077Z,9.08
2017-10-09T05:21:40.078Z,9.03
2017-10-09T05:22:40.078Z,9.00
2017-10-09T05:23:40.076Z,9.03
2017-10-09T05:24:40.076Z,9.03
2017-10-09T05:25:40.077Z,9.09
2017-10-09T05:26:40.096Z,8.92
2017-10-09T05:27:40.074Z,9.11
2017-10-09T05:28:40.074Z,8.96
2017-10-09T05:29:40.072Z,9.12
2017-10-09T05:30:40.074Z,9.05
2017-10-09T05:31:40.074Z,9.02
2017-10-09T05:32:40.073Z,9.00
2017-10-09T05:33:40.071Z,9.03
2017-10-09T05:34:40.071Z,9.08
2017-10-09T05:35:40.069Z,9.00
2017-10-09T05:36:40.069Z,9.05
2017-10-09T05:37:40.070Z,9.13
2017-10-09T05:38:40.069Z,9.13
2017-10-09T05:39:40.068Z,9.05
2017-10-09T05:40:40.069Z,9.11
2017-10-09T05:41:40.068Z,9.13
2017-10-09T05:42:40.069Z,9.11
2017-10-09T05:43:40.067Z,9.12
2017-10-09T05:44:40.066Z,9.13
2017-10-09T05:45:40.071Z,9.11
2017-10-09T05:46:40.070Z,9.21
2017-10-09T05:47:40.065Z,9.15
2017-10-09T05:48:40.065Z,9.22
2017-10-09T05:49:40.064Z,9.12
2017-10-09T05:50:40.064Z,9.08
2017-10-09T05:51:40.065Z,9.08
2017-10-09T05:52:40.066Z,9.09
2017-10-09T05:53:40.063Z,9.13
2017-10-09T05:54:40.062Z,9.11
2017-10-09T05:55:40.061Z,9.19
2017-10-09T05:56:40.062Z,9.16
2017-10-09T05:57:40.061Z,9.15
2017-10-09T05:58:40.061Z,9.18
2017-10-09T05:59:40.059Z,9.22
2017-10-09T06:00:40.060Z,9.16
2017-10-09T06:01:40.059Z,9.18
2017-10-09T06:02:40.063Z,9.24
2017-10-09T06:03:40.058Z,9.26
2017-10-09T06:04:40.059Z,9.26
2017-10-09T06:05:40.058Z,9.30
2017-10-09T06:06:40.059Z,9.26
2017-10-09T06:07:40.058Z,9.19
2017-10-09T06:08:40.056Z,9.12
2017-10-09T06:09:40.056Z,9.13
2017-10-09T06:10:40.057Z,9.11
2017-10-09T06:11:40.056Z,9.13
2017-10-09T06:12:40.057Z,9.11
2017-10-09T06:13:40.055Z,9.05
2017-10-09T06:14:40.055Z,8.95
2017-10-09T06:15:40.053Z,8.92
2017-10-09T06:16:40.053Z,9.00
2017-10-09T06:17:40.053Z,8.96
2017-10-09T06:18:40.053Z,8.99
2017-10-09T06:19:40.052Z,9.03
2017-10-09T06:20:40.052Z,9.08
2017-10-09T06:21:40.052Z,8.99
2017-10-09T06:22:40.052Z,9.09
2017-10-09T06:23:40.050Z,9.11
2017-10-09T06:24:40.050Z,9.09
2017-10-09T06:25:40.049Z,9.09
2017-10-09T06:26:40.050Z,9.11
2017-10-09T06:27:40.049Z,9.24
2017-10-09T06:28:40.049Z,9.09
2017-10-09T06:29:40.049Z,9.29
2017-10-09T06:30:40.049Z,9.36
2017-10-09T06:31:40.047Z,9.34
2017-10-09T06:32:40.048Z,9.42
2017-10-09T06:33:40.048Z,9.48
2017-10-09T06:34:40.046Z,9.49
2017-10-09T06:35:40.046Z,9.45
2017-10-09T06:36:40.047Z,9.52
2017-10-09T06:37:40.047Z,9.52
2017-10-09T06:38:40.046Z,9.64
2017-10-09T06:39:40.045Z,9.49
2017-10-09T06:40:40.045Z,9.52
2017-10-09T06:41:40.046Z,9.51
2017-10-09T06:42:40.045Z,9.64
2017-10-09T06:43:40.044Z,9.69
2017-10-09T06:44:40.046Z,9.67
2017-10-09T06:45:40.044Z,9.62
2017-10-09T06:46:40.044Z,9.77
2017-10-09T06:47:40.044Z,9.77
2017-10-09T06:48:40.043Z,9.72
2017-10-09T06:49:40.044Z,9.70
2017-10-09T06:50:40.050Z,9.74
2017-10-09T06:51:40.043Z,9.70
2017-10-09T06:52:40.044Z,9.69
2017-10-09T06:53:40.047Z,9.74
2017-10-09T06:54:40.042Z,9.80
2017-10-09T06:55:40.045Z,9.87
2017-10-09T06:56:40.045Z,9.82
2017-10-09T06:57:40.042Z,9.85
2017-10-09T06:58:40.043Z,9.84
2017-10-09T06:59:40.042Z,9.81
2017-10-09T07:00:40.042Z,9.85
2017-10-09T07:01:40.043Z,9.88
2017-10-09T07:02:40.042Z,9.88
2017-10-09T07:03:40.046Z,9.91
2017-10-09T07:04:40.043Z,9.94
2017-10-09T07:05:40.042Z,10.06
2017-10-09T07:06:40.044Z,10.03
2017-10-09T07:07:40.043Z,9.99
2017-10-09T07:08:40.043Z,10.05
2017-10-09T07:09:40.044Z,10.06
2017-10-09T07:10:40.045Z,10.00
2017-10-09T07:11:40.045Z,10.07
2017-10-09T07:12:40.044Z,10.13
2017-10-09T07:13:40.043Z,10.17
2017-10-09T07:14:40.045Z,10.13
2017-10-09T07:15:40.043Z,10.10
2017-10-09T07:16:40.043Z,10.12
2017-10-09T07:17:40.046Z,10.09
2017-10-09T07:18:40.045Z,10.09
2017-10-09T07:19:40.044Z,10.02
2017-10-09T07:20:40.044Z,10.06
2017-10-09T07:21:40.044Z,10.10
2017-10-09T07:22:40.048Z,10.07
2017-10-09T07:23:40.045Z,10.23
2017-10-09T07:24:40.047Z,10.27
2017-10-09T07:25:40.047Z,10.24
2017-10-09T07:26:40.046Z,10.34
2017-10-09T07:27:40.047Z,10.25
2017-10-09T07:28:40.047Z,10.17
2017-10-09T07:29:40.047Z,10.25
2017-10-09T07:30:40.051Z,10.20
2017-10-09T07:31:40.047Z,10.23
2017-10-09T07:32:40.049Z,10.24
2017-10-09T07:33:40.049Z,10.23
2017-10-09T07:34:40.048Z,10.27
2017-10-09T07:35:40.047Z,10.25
2017-10-09T07:36:40.050Z,10.27
2017-10-09T07:37:40.048Z,10.28
2017-10-09T07:38:40.051Z,10.25
2017-10-09T07:39:40.049Z,10.23
2017-10-09T07:40:40.050Z,10.38
2017-10-09T07:41:40.051Z,10.42
2017-10-09T07:42:40.051Z,10.42
2017-10-09T07:43:40.052Z,10.51
2017-10-09T07:44:40.054Z,10.59
2017-10-09T07:45:40.053Z,10.57
2017-10-09T07:46:40.053Z,10.59
2017-10-09T07:47:40.053Z,10.57
2017-10-09T07:48:40.054Z,10.69
2017-10-09T07:49:40.054Z,10.77
2017-10-09T07:50:40.055Z,10.83
2017-10-09T07:51:40.056Z,10.89
2017-10-09T07:52:40.056Z,10.89
2017-10-09T07:53:40.056Z,10.83
2017-10-09T07:54:40.058Z,10.90
2017-10-09T07:55:40.062Z,10.98
2017-10-09T07:56:40.062Z,10.95
2017-10-09T07:57:40.058Z,10.92
2017-10-09T07:58:40.061Z,10.97
2017-10-09T07:59:40.061Z,10.95
2017-10-09T08:00:40.084Z,10.98
2017-10-09T08:01:40.063Z,10.95
2017-10-09T08:02:40.062Z,10.82
2017-10-09T08:03:40.063Z,10.94
2017-10-09T08:04:40.065Z,10.87
2017-10-09T08:05:40.064Z,10.86
2017-10-09T08:06:40.068Z,10.84
2017-10-09T08:07:40.070Z,10.89
2017-10-09T08:08:40.068Z,10.95
2017-10-09T08:09:40.076Z,10.95
2017-10-09T08:10:40.071Z,11.08
2017-10-09T08:11:40.071Z,11.07
2017-10-09T08:12:40.071Z,11.10
2017-10-09T08:13:40.073Z,11.25
2017-10-09T08:14:40.074Z,11.33
2017-10-09T08:15:40.074Z,11.40
2017-10-09T08:16:40.096Z,11.55
2017-10-09T08:17:40.077Z,11.55
2017-10-09T08:18:40.079Z,11.65
2017-10-09T08:19:40.078Z,11.70
2017-10-09T08:20:40.079Z,11.85
2017-10-09T08:21:40.080Z,11.88
2017-10-09T08:22:40.083Z,11.95
2017-10-09T08:23:40.083Z,12.02
2017-10-09T08:24:40.084Z,12.08
2017-10-09T08:25:40.085Z,12.20
2017-10-09T08:26:40.087Z,12.25
2017-10-09T08:27:40.088Z,12.25
2017-10-09T08:28:40.089Z,12.14
2017-10-09T08:29:40.091Z,12.18
2017-10-09T08:30:40.094Z,12.35
2017-10-09T08:31:40.093Z,12.39
2017-10-09T08:32:40.096Z,12.57
2017-10-09T08:33:40.097Z,12.68
2017-10-09T08:34:40.100Z,12.54
2017-10-09T08:35:40.101Z,12.51
2017-10-09T08:36:40.104Z,12.48
2017-10-09T08:37:40.106Z,12.36
2017-10-09T08:38:40.109Z,12.36
2017-10-09T08:39:40.118Z,12.37
2017-10-09T08:40:40.112Z,12.40
2017-10-09T08:41:40.113Z,12.50
2017-10-09T08:42:40.116Z,12.51
2017-10-09T08:43:40.117Z,12.53
2017-10-09T08:44:40.120Z,12.62
2017-10-09T08:45:40.121Z,12.63
2017-10-09T08:46:40.125Z,12.65
2017-10-09T08:47:40.125Z,12.62
2017-10-09T08:48:40.128Z,12.78
2017-10-09T08:49:40.132Z,12.68
2017-10-09T08:50:40.133Z,12.66
2017-10-09T08:51:40.134Z,12.63
2017-10-09T08:52:40.138Z,12.66
2017-10-09T08:53:40.140Z,12.54
2017-10-09T08:54:40.144Z,12.50
2017-10-09T08:55:40.144Z,12.35
2017-10-09T08:56:40.148Z,12.33
2017-10-09T08:57:40.149Z,12.35
2017-10-09T08:58:40.153Z,12.21
2017-10-09T08:59:40.154Z,12.18
2017-10-09T09:00:40.155Z,12.15
2017-10-09T09:01:40.159Z,12.32
2017-10-09T09:02:40.161Z,12.33
2017-10-09T09:03:40.194Z,12.32
2017-10-09T09:04:40.165Z,12.37
2017-10-09T09:05:40.166Z,12.33
2017-10-09T09:06:40.168Z,12.40
2017-10-09T09:07:40.170Z,12.43
2017-10-09T09:08:40.174Z,12.37
2017-10-09T09:09:40.174Z,12.36
2017-10-09T09:10:40.179Z,12.33
2017-10-09T09:11:40.179Z,12.25
2017-10-09T09:12:40.182Z,12.28
2017-10-09T09:13:40.184Z,12.25
2017-10-09T09:14:40.187Z,12.23
2017-10-09T09:15:40.188Z,12.26
2017-10-09T09:16:40.190Z,12.23
2017-10-09T09:17:40.191Z,12.15
2017-10-09T09:18:40.194Z,12.32
2017-10-09T09:19:40.195Z,12.25
2017-10-09T09:20:40.197Z,12.29
2017-10-09T09:21:40.200Z,12.39
2017-10-09T09:22:40.200Z,12.35
2017-10-09T09:23:40.203Z,12.47
2017-10-09T09:24:40.204Z,12.47
2017-10-09T09:25:40.206Z,12.54
2017-10-09T09:26:40.209Z,12.53
2017-10-09T09:27:40.211Z,12.54
2017-10-09T09:28:40.212Z,12.62
2017-10-09T09:29:40.216Z,12.62
2017-10-09T09:30:40.217Z,12.75
2017-10-09T09:31:40.218Z,12.78
2017-10-09T09:32:40.220Z,12.88
2017-10-09T09:33:40.223Z,13.01
2017-10-09T09:34:40.229Z,13.12
2017-10-09T09:35:40.226Z,13.21
2017-10-09T09:36:40.230Z,13.17
2017-10-09T09:37:40.233Z,13.17
2017-10-09T09:38:40.235Z,13.23
2017-10-09T09:39:40.237Z,13.09
2017-10-09T09:40:40.238Z,13.24
2017-10-09T09:41:40.240Z,13.36
2017-10-09T09:42:40.244Z,13.30
2017-10-09T09:43:40.245Z,13.45
2017-10-09T09:44:40.248Z,13.57
2017-10-09T09:45:40.252Z,13.64
2017-10-09T09:46:40.254Z,13.65
2017-10-09T09:47:40.256Z,13.85
2017-10-09T09:48:40.259Z,14.01
2017-10-09T09:49:40.263Z,13.97
2017-10-09T09:50:40.266Z,14.05
2017-10-09T09:51:40.268Z,14.08
2017-10-09T09:52:40.270Z,14.22
2017-10-09T09:53:40.275Z,14.30
2017-10-09T09:54:40.277Z,14.36
2017-10-09T09:55:40.280Z,14.48
2017-10-09T09:56:40.284Z,14.45
2017-10-09T09:57:40.288Z,14.49
2017-10-09T09:58:40.291Z,14.52
2017-10-09T09:59:40.293Z,14.71
2017-10-09T10:00:40.297Z,14.61
2017-10-09T10:01:40.300Z,14.63
2017-10-09T10:02:40.304Z,14.68
2017-10-09T10:03:40.307Z,14.74
2017-10-09T10:04:40.313Z,14.87
2017-10-09T10:05:40.315Z,15.00
2017-10-09T10:06:40.318Z,14.97
2017-10-09T10:07:40.322Z,15.05
2017-10-09T10:08:40.326Z,15.33
2017-10-09T10:09:40.344Z,15.30
2017-10-09T10:10:40.335Z,15.32
2017-10-09T10:11:40.337Z,15.45
2017-10-09T10:12:40.342Z,15.84
2017-10-09T10:13:40.346Z,15.99
2017-10-09T10:14:40.353Z,15.88
2017-10-09T10:15:40.354Z,16.00
2017-10-09T10:16:40.358Z,15.96
2017-10-09T10:17:40.364Z,15.90
2017-10-09T10:18:40.369Z,15.73
2017-10-09T10:19:40.371Z,15.63
2017-10-09T10:20:40.377Z,15.52
2017-10-09T10:21:40.381Z,15.32
2017-10-09T10:22:40.385Z,15.25
2017-10-09T10:23:40.389Z,15.12
2017-10-09T10:24:40.396Z,14.94
2017-10-09T10:25:40.399Z,14.89
2017-10-09T10:26:40.405Z,14.74
2017-10-09T10:27:40.407Z,14.55
2017-10-09T10:28:40.413Z,14.41
2017-10-09T10:29:40.416Z,14.34
2017-10-09T10:30:40.420Z,14.20
2017-10-09T10:31:40.425Z,14.01
2017-10-09T10:32:40.430Z,13.95
2017-10-09T10:33:40.434Z,13.86
2017-10-09T10:34:40.438Z,13.71
2017-10-09T10:35:40.442Z,13.67
2017-10-09T10:36:40.446Z,13.57
2017-10-09T10:37:40.452Z,13.54
2017-10-09T10:38:40.454Z,13.52
2017-10-09T10:39:40.457Z,13.61
2017-10-09T10:40:40.464Z,13.58
2017-10-09T10:41:40.465Z,13.54
2017-10-09T10:42:40.468Z,13.57
2017-10-09T10:43:40.473Z,13.61
2017-10-09T10:44:40.474Z,13.70
2017-10-09T10:45:40.477Z,13.79
2017-10-09T10:46:40.481Z,13.93
2017-10-09T10:47:40.484Z,14.16
2017-10-09T10:48:40.489Z,14.36
2017-10-09T10:49:40.491Z,14.26
2017-10-09T10:50:40.495Z,14.36
2017-10-09T10:51:40.498Z,14.45
2017-10-09T10:52:40.502Z,14.55
2017-10-09T10:53:40.507Z,14.59
2017-10-09T10:54:40.511Z,14.77
2017-10-09T10:55:40.518Z,14.77
2017-10-09T10:56:40.519Z,14.90
2017-10-09T10:57:40.522Z,15.08
2017-10-09T10:58:40.527Z,15.04
2017-10-09T10:59:40.533Z,14.99
2017-10-09T11:00:40.533Z,14.87
2017-10-09T11:01:40.537Z,14.74
2017-10-09T11:02:40.543Z,14.77
2017-10-09T11:03:40.545Z,14.82
2017-10-09T11:04:40.550Z,14.99
2017-10-09T11:05:40.556Z,15.10
2017-10-09T11:06:40.560Z,15.00
2017-10-09T11:07:40.563Z,15.10
2017-10-09T11:08:40.569Z,15.02
2017-10-09T11:09:40.571Z,15.07
2017-10-09T11:10:40.577Z,15.08
2017-10-09T11:11:40.579Z,15.05
2017-10-09T11:12:40.584Z,15.02
2017-10-09T11:13:40.590Z,15.11
2017-10-09T11:14:40.594Z,15.08
2017-10-09T11:15:40.596Z,15.10
2017-10-09T11:16:40.603Z,15.17
2017-10-09T11:17:40.608Z,15.26
2017-10-09T11:18:40.613Z,15.27
2017-10-09T11:19:40.615Z,15.25
2017-10-09T11:20:40.622Z,15.14
2017-10-09T11:21:40.625Z,15.15
2017-10-09T11:22:40.629Z,15.15
2017-10-09T11:23:40.633Z,15.02
2017-10-09T11:24:40.638Z,14.89
2017-10-09T11:25:40.643Z,14.73
2017-10-09T11:26:40.649Z,14.51
2017-10-09T11:27:40.651Z,14.33
2017-10-09T11:28:40.656Z,14.18
2017-10-09T11:29:40.659Z,14.22
2017-10-09T11:30:40.665Z,14.08
2017-10-09T11:31:40.667Z,14.16
2017-10-09T11:32:40.672Z,14.20
2017-10-09T11:33:40.676Z,14.25
2017-10-09T11:34:40.681Z,14.33
2017-10-09T11:35:40.682Z,14.34
2017-10-09T11:36:40.688Z,14.40
2017-10-09T11:37:40.693Z,14.36
2017-10-09T11:38:40.696Z,14.49
2017-10-09T11:39:40.700Z,14.44
2017-10-09T11:40:40.704Z,14.53
2017-10-09T11:41:40.709Z,14.68
2017-10-09T11:42:40.713Z,14.59
2017-10-09T11:43:40.714Z,14.73
2017-10-09T11:44:40.720Z,14.78
2017-10-09T11:45:40.723Z,14.90
2017-10-09T11:46:40.728Z,14.96
2017-10-09T11:47:40.731Z,15.08
2017-10-09T11:48:40.734Z,15.08
2017-10-09T11:49:40.739Z,14.92
2017-10-09T11:50:40.745Z,14.97
2017-10-09T11:51:40.751Z,15.11
2017-10-09T11:52:40.754Z,15.10
2017-10-09T11:53:40.755Z,15.04
2017-10-09T11:54:40.759Z,14.99
2017-10-09T11:55:40.764Z,14.94
2017-10-09T11:56:40.768Z,14.96
2017-10-09T11:57:40.772Z,14.99
2017-10-09T11:58:40.776Z,14.96
2017-10-09T11:59:40.781Z,15.00
2017-10-09T12:00:40.784Z,15.02
2017-10-09T12:01:40.789Z,14.99
2017-10-09T12:02:40.794Z,15.07
2017-10-09T12:03:40.797Z,15.07
2017-10-09T12:04:40.801Z,15.07
2017-10-09T12:05:40.806Z,15.15
2017-10-09T12:06:40.810Z,15.11
2017-10-09T12:07:40.815Z,15.15
2017-10-09T12:08:40.818Z,15.14
2017-10-09T12:09:40.822Z,15.30
2017-10-09T12:10:40.827Z,15.30
2017-10-09T12:11:40.830Z,15.41
2017-10-09T12:12:40.836Z,15.48
2017-10-09T12:13:40.839Z,15.54
2017-10-09T12:14:40.844Z,15.50
2017-10-09T12:15:40.849Z,15.60
2017-10-09T12:16:40.852Z,15.47
2017-10-09T12:17:40.857Z,15.43
2017-10-09T12:18:40.862Z,15.43
2017-10-09T12:19:40.866Z,15.45
2017-10-09T12:20:40.871Z,15.47
2017-10-09T12:21:40.883Z,15.35
2017-10-09T12:22:40.883Z,15.30
2017-10-09T12:23:40.883Z,15.11
2017-10-09T12:24:40.888Z,15.22
2017-10-09T12:25:40.895Z,15.18
2017-10-09T12:26:40.898Z,15.05
2017-10-09T12:27:40.901Z,15.07
2017-10-09T12:28:40.908Z,14.99
2017-10-09T12:29:40.912Z,14.93
2017-10-09T12:30:40.915Z,14.81
2017-10-09T12:31:40.930Z,14.70
2017-10-09T12:32:40.923Z,14.73
2017-10-09T12:33:40.928Z,14.70
2017-10-09T12:34:40.933Z,14.86
2017-10-09T12:35:40.935Z,14.87
2017-10-09T12:36:40.941Z,14.89
2017-10-09T12:37:40.944Z,14.82
2017-10-09T12:38:40.949Z,14.82
2017-10-09T12:39:40.952Z,14.73
2017-10-09T12:40:40.957Z,14.82
2017-10-09T12:41:40.962Z,14.78
2017-10-09T12:42:40.967Z,14.79
2017-10-09T12:43:40.969Z,14.78
2017-10-09T12:44:40.973Z,14.78
2017-10-09T12:45:41.044Z,14.81
2017-10-09T12:46:40.984Z,14.93
2017-10-09T12:47:40.986Z,14.96
2017-10-09T12:48:40.990Z,15.00
2017-10-09T12:49:40.994Z,15.04
2017-10-09T12:50:41.003Z,15.17
2017-10-09T12:51:41.002Z,15.14
2017-10-09T12:52:41.005Z,15.12
2017-10-09T12:53:41.009Z,15.23
2017-10-09T12:54:41.014Z,15.12
2017-10-09T12:55:41.018Z,15.23
2017-10-09T12:56:41.023Z,15.23
2017-10-09T12:57:41.027Z,15.15
2017-10-09T12:58:41.030Z,15.32
2017-10-09T12:59:41.033Z,15.44
2017-10-09T13:00:41.039Z,15.39
2017-10-09T13:01:41.043Z,15.39
2017-10-09T13:02:41.047Z,15.33
2017-10-09T13:03:41.051Z,15.26
2017-10-09T13:04:41.245Z,15.43
2017-10-09T13:05:41.063Z,15.41
2017-10-09T13:06:41.064Z,15.43